sensor_id;sensor_type;location;lat;lon;timestamp;P1;durP1;ratioP1;P2;durP2;ratioP2
17494;SDS011;8864;51.970;4.614;2023-02-12T00:01:38;4.68;;;2.35;;
17494;SDS011;8864;51.970;4.614;2023-02-12T00:04:05;4.07;;;2.65;;
17494;SDS011;8864;51.970;4.614;2023-02-12T00:06:34;5.05;;;2.40;;
17494;SDS011;8864;51.970;4.614;2023-02-12T00:09:01;4.97;;;2.40;;
17494;SDS011;8864;51.970;4.614;2023-02-12T00:11:28;4.00;;;2.35;;
17494;SDS011;8864;51.970;4.614;2023-02-12T00:14:00;5.43;;;2.50;;
17494;SDS011;8864;51.970;4.614;2023-02-12T00:16:34;6.72;;;2.80;;
17494;SDS011;8864;51.970;4.614;2023-02-12T00:19:08;7.55;;;3.08;;
17494;SDS011;8864;51.970;4.614;2023-02-12T00:21:37;5.75;;;2.67;;
17494;SDS011;8864;51.970;4.614;2023-02-12T00:24:10;4.43;;;2.45;;
17494;SDS011;8864;51.970;4.614;2023-02-12T00:26:36;6.35;;;2.80;;
17494;SDS011;8864;51.970;4.614;2023-02-12T00:29:10;7.30;;;3.03;;
17494;SDS011;8864;51.970;4.614;2023-02-12T00:31:39;7.00;;;2.85;;
17494;SDS011;8864;51.970;4.614;2023-02-12T00:34:06;4.22;;;2.50;;
17494;SDS011;8864;51.970;4.614;2023-02-12T00:36:39;4.90;;;2.33;;
17494;SDS011;8864;51.970;4.614;2023-02-12T00:39:12;5.57;;;2.85;;
17494;SDS011;8864;51.970;4.614;2023-02-12T00:41:42;4.28;;;2.42;;
17494;SDS011;8864;51.970;4.614;2023-02-12T00:44:11;9.88;;;3.00;;
17494;SDS011;8864;51.970;4.614;2023-02-12T00:46:39;6.55;;;2.80;;
17494;SDS011;8864;51.970;4.614;2023-02-12T00:49:11;6.45;;;2.85;;
17494;SDS011;8864;51.970;4.614;2023-02-12T00:51:38;8.13;;;3.15;;
17494;SDS011;8864;51.970;4.614;2023-02-12T00:54:05;5.43;;;2.70;;
17494;SDS011;8864;51.970;4.614;2023-02-12T00:56:32;5.05;;;3.08;;
17494;SDS011;8864;51.970;4.614;2023-02-12T00:59:01;6.72;;;2.70;;
17494;SDS011;8864;51.970;4.614;2023-02-12T01:01:30;7.63;;;3.38;;
17494;SDS011;8864;51.970;4.614;2023-02-12T01:03:59;5.05;;;2.80;;
17494;SDS011;8864;51.970;4.614;2023-02-12T01:06:27;5.40;;;2.92;;
17494;SDS011;8864;51.970;4.614;2023-02-12T01:09:16;8.70;;;3.60;;
17494;SDS011;8864;51.970;4.614;2023-02-12T01:11:46;5.85;;;3.22;;
17494;SDS011;8864;51.970;4.614;2023-02-12T01:14:15;5.32;;;3.05;;
17494;SDS011;8864;51.970;4.614;2023-02-12T01:16:44;8.45;;;3.40;;
17494;SDS011;8864;51.970;4.614;2023-02-12T01:19:11;6.80;;;3.25;;
17494;SDS011;8864;51.970;4.614;2023-02-12T01:21:42;6.55;;;3.10;;
17494;SDS011;8864;51.970;4.614;2023-02-12T01:24:09;6.32;;;3.35;;
17494;SDS011;8864;51.970;4.614;2023-02-12T01:26:36;6.60;;;3.10;;
17494;SDS011;8864;51.970;4.614;2023-02-12T01:29:06;10.98;;;3.60;;
17494;SDS011;8864;51.970;4.614;2023-02-12T01:31:41;11.95;;;3.40;;
17494;SDS011;8864;51.970;4.614;2023-02-12T01:34:10;5.88;;;3.00;;
17494;SDS011;8864;51.970;4.614;2023-02-12T01:36:37;6.45;;;3.08;;
17494;SDS011;8864;51.970;4.614;2023-02-12T01:39:06;5.97;;;3.40;;
17494;SDS011;8864;51.970;4.614;2023-02-12T01:41:36;5.32;;;2.97;;
17494;SDS011;8864;51.970;4.614;2023-02-12T01:46:54;5.85;;;3.17;;
17494;SDS011;8864;51.970;4.614;2023-02-12T01:49:28;8.23;;;3.30;;
17494;SDS011;8864;51.970;4.614;2023-02-12T01:52:06;6.20;;;3.08;;
17494;SDS011;8864;51.970;4.614;2023-02-12T01:54:39;5.32;;;3.22;;
17494;SDS011;8864;51.970;4.614;2023-02-12T01:57:07;8.32;;;3.70;;
17494;SDS011;8864;51.970;4.614;2023-02-12T01:59:40;7.80;;;3.38;;
17494;SDS011;8864;51.970;4.614;2023-02-12T02:02:09;7.18;;;3.20;;
17494;SDS011;8864;51.970;4.614;2023-02-12T02:04:39;7.38;;;3.08;;
17494;SDS011;8864;51.970;4.614;2023-02-12T02:07:09;8.48;;;3.20;;
17494;SDS011;8864;51.970;4.614;2023-02-12T02:09:37;7.50;;;3.05;;
17494;SDS011;8864;51.970;4.614;2023-02-12T02:12:12;6.78;;;3.00;;
17494;SDS011;8864;51.970;4.614;2023-02-12T02:14:57;7.25;;;3.47;;
17494;SDS011;8864;51.970;4.614;2023-02-12T02:20:38;11.25;;;3.53;;
17494;SDS011;8864;51.970;4.614;2023-02-12T02:23:37;7.55;;;3.10;;
17494;SDS011;8864;51.970;4.614;2023-02-12T02:26:49;5.63;;;3.00;;
17494;SDS011;8864;51.970;4.614;2023-02-12T02:29:48;8.05;;;3.38;;
17494;SDS011;8864;51.970;4.614;2023-02-12T02:32:40;7.22;;;3.53;;
17494;SDS011;8864;51.970;4.614;2023-02-12T02:35:14;7.25;;;2.95;;
17494;SDS011;8864;51.970;4.614;2023-02-12T02:37:52;7.28;;;3.67;;
17494;SDS011;8864;51.970;4.614;2023-02-12T02:40:32;6.10;;;3.40;;
17494;SDS011;8864;51.970;4.614;2023-02-12T02:43:08;8.00;;;3.28;;
17494;SDS011;8864;51.970;4.614;2023-02-12T02:45:43;5.32;;;3.10;;
17494;SDS011;8864;51.970;4.614;2023-02-12T02:48:20;6.82;;;3.25;;
17494;SDS011;8864;51.970;4.614;2023-02-12T02:50:52;6.38;;;3.35;;
17494;SDS011;8864;51.970;4.614;2023-02-12T02:53:25;8.02;;;3.28;;
17494;SDS011;8864;51.970;4.614;2023-02-12T02:55:57;5.22;;;3.05;;
17494;SDS011;8864;51.970;4.614;2023-02-12T02:58:28;5.78;;;2.80;;
17494;SDS011;8864;51.970;4.614;2023-02-12T03:01:00;6.65;;;3.30;;
17494;SDS011;8864;51.970;4.614;2023-02-12T03:03:33;5.10;;;3.17;;
17494;SDS011;8864;51.970;4.614;2023-02-12T03:06:13;6.93;;;3.30;;
17494;SDS011;8864;51.970;4.614;2023-02-12T03:08:45;7.93;;;3.17;;
17494;SDS011;8864;51.970;4.614;2023-02-12T03:11:24;4.60;;;3.17;;
17494;SDS011;8864;51.970;4.614;2023-02-12T03:13:55;6.47;;;3.22;;
17494;SDS011;8864;51.970;4.614;2023-02-12T03:16:26;5.93;;;3.35;;
17494;SDS011;8864;51.970;4.614;2023-02-12T03:19:01;5.32;;;2.85;;
17494;SDS011;8864;51.970;4.614;2023-02-12T03:21:36;6.43;;;3.15;;
17494;SDS011;8864;51.970;4.614;2023-02-12T03:24:10;6.32;;;3.42;;
17494;SDS011;8864;51.970;4.614;2023-02-12T03:26:43;6.68;;;3.05;;
17494;SDS011;8864;51.970;4.614;2023-02-12T03:29:14;6.43;;;2.53;;
17494;SDS011;8864;51.970;4.614;2023-02-12T03:31:46;6.10;;;2.72;;
17494;SDS011;8864;51.970;4.614;2023-02-12T03:34:28;6.03;;;2.97;;
17494;SDS011;8864;51.970;4.614;2023-02-12T03:37:01;5.63;;;2.97;;
17494;SDS011;8864;51.970;4.614;2023-02-12T03:39:37;5.43;;;2.97;;
17494;SDS011;8864;51.970;4.614;2023-02-12T03:42:13;5.47;;;2.97;;
17494;SDS011;8864;51.970;4.614;2023-02-12T03:44:45;5.03;;;2.67;;
17494;SDS011;8864;51.970;4.614;2023-02-12T03:47:22;6.45;;;3.20;;
17494;SDS011;8864;51.970;4.614;2023-02-12T03:49:56;5.47;;;3.40;;
17494;SDS011;8864;51.970;4.614;2023-02-12T03:52:31;5.03;;;2.75;;
17494;SDS011;8864;51.970;4.614;2023-02-12T03:55:02;5.25;;;2.70;;
17494;SDS011;8864;51.970;4.614;2023-02-12T03:57:38;5.40;;;3.28;;
17494;SDS011;8864;51.970;4.614;2023-02-12T04:00:10;4.82;;;3.10;;
17494;SDS011;8864;51.970;4.614;2023-02-12T04:02:42;5.13;;;2.90;;
17494;SDS011;8864;51.970;4.614;2023-02-12T04:05:19;5.70;;;3.28;;
17494;SDS011;8864;51.970;4.614;2023-02-12T04:07:50;4.63;;;2.92;;
17494;SDS011;8864;51.970;4.614;2023-02-12T04:13:22;5.40;;;2.45;;
17494;SDS011;8864;51.970;4.614;2023-02-12T04:16:11;4.85;;;2.85;;
17494;SDS011;8864;51.970;4.614;2023-02-12T04:18:45;5.15;;;3.20;;
17494;SDS011;8864;51.970;4.614;2023-02-12T04:21:17;6.78;;;3.17;;
17494;SDS011;8864;51.970;4.614;2023-02-12T04:23:57;5.35;;;2.65;;
17494;SDS011;8864;51.970;4.614;2023-02-12T04:26:33;7.40;;;2.90;;
17494;SDS011;8864;51.970;4.614;2023-02-12T04:29:10;4.93;;;3.10;;
17494;SDS011;8864;51.970;4.614;2023-02-12T04:31:53;5.50;;;3.05;;
17494;SDS011;8864;51.970;4.614;2023-02-12T04:34:25;6.65;;;3.15;;
17494;SDS011;8864;51.970;4.614;2023-02-12T04:37:01;5.75;;;2.95;;
17494;SDS011;8864;51.970;4.614;2023-02-12T04:39:35;5.43;;;3.35;;
17494;SDS011;8864;51.970;4.614;2023-02-12T04:42:09;4.50;;;2.85;;
17494;SDS011;8864;51.970;4.614;2023-02-12T04:44:42;5.97;;;2.80;;
17494;SDS011;8864;51.970;4.614;2023-02-12T04:47:13;4.78;;;2.88;;
17494;SDS011;8864;51.970;4.614;2023-02-12T04:49:42;4.43;;;2.50;;
17494;SDS011;8864;51.970;4.614;2023-02-12T04:52:12;5.60;;;3.00;;
17494;SDS011;8864;51.970;4.614;2023-02-12T04:54:40;5.20;;;2.75;;
17494;SDS011;8864;51.970;4.614;2023-02-12T04:57:08;4.45;;;2.60;;
17494;SDS011;8864;51.970;4.614;2023-02-12T04:59:35;4.40;;;2.65;;
17494;SDS011;8864;51.970;4.614;2023-02-12T05:02:02;5.70;;;2.83;;
17494;SDS011;8864;51.970;4.614;2023-02-12T05:04:44;5.63;;;3.20;;
17494;SDS011;8864;51.970;4.614;2023-02-12T05:07:14;7.55;;;2.80;;
17494;SDS011;8864;51.970;4.614;2023-02-12T05:09:42;3.78;;;2.40;;
17494;SDS011;8864;51.970;4.614;2023-02-12T05:12:10;4.40;;;2.60;;
17494;SDS011;8864;51.970;4.614;2023-02-12T05:14:41;4.38;;;2.67;;
17494;SDS011;8864;51.970;4.614;2023-02-12T05:17:09;3.47;;;2.45;;
17494;SDS011;8864;51.970;4.614;2023-02-12T05:19:36;4.38;;;2.78;;
17494;SDS011;8864;51.970;4.614;2023-02-12T05:22:03;3.88;;;2.45;;
17494;SDS011;8864;51.970;4.614;2023-02-12T05:24:43;4.38;;;2.60;;
17494;SDS011;8864;51.970;4.614;2023-02-12T05:27:13;4.13;;;2.40;;
17494;SDS011;8864;51.970;4.614;2023-02-12T05:29:40;4.93;;;2.33;;
17494;SDS011;8864;51.970;4.614;2023-02-12T05:32:17;3.33;;;2.30;;
17494;SDS011;8864;51.970;4.614;2023-02-12T05:34:46;3.92;;;2.30;;
17494;SDS011;8864;51.970;4.614;2023-02-12T05:37:14;4.55;;;2.38;;
17494;SDS011;8864;51.970;4.614;2023-02-12T05:39:43;3.78;;;2.30;;
17494;SDS011;8864;51.970;4.614;2023-02-12T05:42:14;3.28;;;2.30;;
17494;SDS011;8864;51.970;4.614;2023-02-12T05:44:42;4.72;;;2.80;;
17494;SDS011;8864;51.970;4.614;2023-02-12T05:47:14;4.97;;;2.60;;
17494;SDS011;8864;51.970;4.614;2023-02-12T05:49:42;4.07;;;2.35;;
17494;SDS011;8864;51.970;4.614;2023-02-12T05:52:12;3.65;;;2.25;;
17494;SDS011;8864;51.970;4.614;2023-02-12T05:54:41;5.53;;;2.67;;
17494;SDS011;8864;51.970;4.614;2023-02-12T05:57:11;5.97;;;2.80;;
17494;SDS011;8864;51.970;4.614;2023-02-12T05:59:39;4.22;;;2.50;;
17494;SDS011;8864;51.970;4.614;2023-02-12T06:02:06;3.90;;;2.40;;
17494;SDS011;8864;51.970;4.614;2023-02-12T06:04:34;2.95;;;2.35;;
17494;SDS011;8864;51.970;4.614;2023-02-12T06:07:04;7.30;;;2.40;;
17494;SDS011;8864;51.970;4.614;2023-02-12T06:09:35;3.90;;;2.38;;
17494;SDS011;8864;51.970;4.614;2023-02-12T06:12:04;3.75;;;2.17;;
17494;SDS011;8864;51.970;4.614;2023-02-12T06:14:31;4.05;;;2.10;;
17494;SDS011;8864;51.970;4.614;2023-02-12T06:16:58;4.32;;;2.30;;
17494;SDS011;8864;51.970;4.614;2023-02-12T06:19:25;5.25;;;2.60;;
17494;SDS011;8864;51.970;4.614;2023-02-12T06:21:52;4.85;;;2.63;;
17494;SDS011;8864;51.970;4.614;2023-02-12T06:24:20;3.60;;;2.65;;
17494;SDS011;8864;51.970;4.614;2023-02-12T06:26:48;3.35;;;2.20;;
17494;SDS011;8864;51.970;4.614;2023-02-12T06:29:20;4.22;;;2.50;;
17494;SDS011;8864;51.970;4.614;2023-02-12T06:31:50;5.38;;;2.58;;
17494;SDS011;8864;51.970;4.614;2023-02-12T06:34:20;3.72;;;2.58;;
17494;SDS011;8864;51.970;4.614;2023-02-12T06:36:47;6.20;;;2.65;;
17494;SDS011;8864;51.970;4.614;2023-02-12T06:39:15;4.90;;;2.70;;
17494;SDS011;8864;51.970;4.614;2023-02-12T06:41:42;5.68;;;2.58;;
17494;SDS011;8864;51.970;4.614;2023-02-12T06:44:10;6.32;;;2.78;;
17494;SDS011;8864;51.970;4.614;2023-02-12T06:46:39;3.58;;;2.30;;
17494;SDS011;8864;51.970;4.614;2023-02-12T06:49:09;5.18;;;2.28;;
17494;SDS011;8864;51.970;4.614;2023-02-12T06:51:46;4.00;;;2.20;;
17494;SDS011;8864;51.970;4.614;2023-02-12T06:54:15;3.90;;;2.10;;
17494;SDS011;8864;51.970;4.614;2023-02-12T06:56:43;3.65;;;2.38;;
17494;SDS011;8864;51.970;4.614;2023-02-12T06:59:11;5.22;;;2.50;;
17494;SDS011;8864;51.970;4.614;2023-02-12T07:01:41;3.28;;;2.13;;
17494;SDS011;8864;51.970;4.614;2023-02-12T07:04:09;2.97;;;2.00;;
17494;SDS011;8864;51.970;4.614;2023-02-12T07:06:38;4.97;;;2.38;;
17494;SDS011;8864;51.970;4.614;2023-02-12T07:09:07;4.53;;;2.08;;
17494;SDS011;8864;51.970;4.614;2023-02-12T07:11:35;2.65;;;2.22;;
17494;SDS011;8864;51.970;4.614;2023-02-12T07:14:05;2.97;;;2.25;;
17494;SDS011;8864;51.970;4.614;2023-02-12T07:16:32;2.85;;;2.00;;
17494;SDS011;8864;51.970;4.614;2023-02-12T07:19:01;6.55;;;2.70;;
17494;SDS011;8864;51.970;4.614;2023-02-12T07:21:28;4.45;;;2.20;;
17494;SDS011;8864;51.970;4.614;2023-02-12T07:23:56;3.70;;;1.98;;
17494;SDS011;8864;51.970;4.614;2023-02-12T07:26:23;3.30;;;2.42;;
17494;SDS011;8864;51.970;4.614;2023-02-12T07:28:50;3.55;;;2.15;;
17494;SDS011;8864;51.970;4.614;2023-02-12T07:31:18;3.88;;;2.20;;
17494;SDS011;8864;51.970;4.614;2023-02-12T07:33:46;3.58;;;2.17;;
17494;SDS011;8864;51.970;4.614;2023-02-12T07:36:18;4.28;;;2.10;;
17494;SDS011;8864;51.970;4.614;2023-02-12T07:38:50;3.45;;;2.15;;
17494;SDS011;8864;51.970;4.614;2023-02-12T07:41:20;3.90;;;2.08;;
17494;SDS011;8864;51.970;4.614;2023-02-12T07:43:52;3.85;;;2.10;;
17494;SDS011;8864;51.970;4.614;2023-02-12T07:46:21;3.35;;;2.00;;
17494;SDS011;8864;51.970;4.614;2023-02-12T07:48:51;4.82;;;2.17;;
17494;SDS011;8864;51.970;4.614;2023-02-12T07:51:21;3.20;;;2.13;;
17494;SDS011;8864;51.970;4.614;2023-02-12T07:53:50;2.67;;;2.13;;
17494;SDS011;8864;51.970;4.614;2023-02-12T07:56:19;3.67;;;2.00;;
17494;SDS011;8864;51.970;4.614;2023-02-12T07:58:49;2.65;;;1.98;;
17494;SDS011;8864;51.970;4.614;2023-02-12T08:01:19;3.63;;;1.90;;
17494;SDS011;8864;51.970;4.614;2023-02-12T08:03:52;3.92;;;2.38;;
17494;SDS011;8864;51.970;4.614;2023-02-12T08:06:22;4.40;;;2.00;;
17494;SDS011;8864;51.970;4.614;2023-02-12T08:08:51;3.65;;;2.28;;
17494;SDS011;8864;51.970;4.614;2023-02-12T08:11:19;4.05;;;2.00;;
17494;SDS011;8864;51.970;4.614;2023-02-12T08:13:46;4.50;;;2.00;;
17494;SDS011;8864;51.970;4.614;2023-02-12T08:16:14;3.08;;;2.00;;
17494;SDS011;8864;51.970;4.614;2023-02-12T08:18:42;5.85;;;2.25;;
17494;SDS011;8864;51.970;4.614;2023-02-12T08:21:11;4.57;;;2.33;;
17494;SDS011;8864;51.970;4.614;2023-02-12T08:23:45;7.43;;;2.10;;
17494;SDS011;8864;51.970;4.614;2023-02-12T08:26:16;6.50;;;1.98;;
17494;SDS011;8864;51.970;4.614;2023-02-12T08:28:48;9.05;;;2.17;;
17494;SDS011;8864;51.970;4.614;2023-02-12T08:31:18;5.45;;;2.38;;
17494;SDS011;8864;51.970;4.614;2023-02-12T08:33:47;10.65;;;2.63;;
17494;SDS011;8864;51.970;4.614;2023-02-12T08:36:17;8.10;;;2.90;;
17494;SDS011;8864;51.970;4.614;2023-02-12T08:38:47;10.38;;;2.90;;
17494;SDS011;8864;51.970;4.614;2023-02-12T08:41:15;8.90;;;3.03;;
17494;SDS011;8864;51.970;4.614;2023-02-12T08:43:44;9.35;;;3.22;;
17494;SDS011;8864;51.970;4.614;2023-02-12T08:46:17;8.98;;;3.10;;
17494;SDS011;8864;51.970;4.614;2023-02-12T08:48:45;11.45;;;3.22;;
17494;SDS011;8864;51.970;4.614;2023-02-12T08:51:13;11.02;;;2.90;;
17494;SDS011;8864;51.970;4.614;2023-02-12T08:53:44;8.90;;;2.92;;
17494;SDS011;8864;51.970;4.614;2023-02-12T08:56:14;12.05;;;3.15;;
17494;SDS011;8864;51.970;4.614;2023-02-12T08:58:43;21.27;;;4.30;;
17494;SDS011;8864;51.970;4.614;2023-02-12T09:01:12;19.92;;;4.28;;
17494;SDS011;8864;51.970;4.614;2023-02-12T09:03:42;12.40;;;3.45;;
17494;SDS011;8864;51.970;4.614;2023-02-12T09:06:19;11.45;;;3.75;;
17494;SDS011;8864;51.970;4.614;2023-02-12T09:08:51;18.02;;;3.95;;
17494;SDS011;8864;51.970;4.614;2023-02-12T09:11:23;8.80;;;3.70;;
17494;SDS011;8864;51.970;4.614;2023-02-12T09:13:56;8.02;;;3.20;;
17494;SDS011;8864;51.970;4.614;2023-02-12T09:16:25;14.18;;;3.25;;
17494;SDS011;8864;51.970;4.614;2023-02-12T09:18:54;8.93;;;3.38;;
17494;SDS011;8864;51.970;4.614;2023-02-12T09:21:22;9.65;;;3.53;;
17494;SDS011;8864;51.970;4.614;2023-02-12T09:23:50;10.05;;;3.60;;
17494;SDS011;8864;51.970;4.614;2023-02-12T09:26:17;10.98;;;2.85;;
17494;SDS011;8864;51.970;4.614;2023-02-12T09:28:49;7.85;;;3.33;;
17494;SDS011;8864;51.970;4.614;2023-02-12T09:31:19;7.32;;;3.10;;
17494;SDS011;8864;51.970;4.614;2023-02-12T09:33:53;5.05;;;2.70;;
17494;SDS011;8864;51.970;4.614;2023-02-12T09:36:25;6.57;;;2.70;;
17494;SDS011;8864;51.970;4.614;2023-02-12T09:38:53;6.72;;;2.60;;
17494;SDS011;8864;51.970;4.614;2023-02-12T09:44:34;8.95;;;2.83;;
17494;SDS011;8864;51.970;4.614;2023-02-12T09:47:16;7.15;;;2.33;;
17494;SDS011;8864;51.970;4.614;2023-02-12T09:49:54;7.32;;;2.72;;
17494;SDS011;8864;51.970;4.614;2023-02-12T09:52:32;6.10;;;2.53;;
17494;SDS011;8864;51.970;4.614;2023-02-12T09:55:01;6.18;;;2.50;;
17494;SDS011;8864;51.970;4.614;2023-02-12T09:57:29;6.07;;;2.70;;
17494;SDS011;8864;51.970;4.614;2023-02-12T10:00:03;3.42;;;2.28;;
17494;SDS011;8864;51.970;4.614;2023-02-12T10:02:33;4.68;;;2.28;;
17494;SDS011;8864;51.970;4.614;2023-02-12T10:05:02;6.32;;;2.47;;
17494;SDS011;8864;51.970;4.614;2023-02-12T10:07:39;4.43;;;2.30;;
17494;SDS011;8864;51.970;4.614;2023-02-12T10:10:23;5.68;;;2.40;;
17494;SDS011;8864;51.970;4.614;2023-02-12T10:13:03;3.50;;;2.35;;
17494;SDS011;8864;51.970;4.614;2023-02-12T10:15:38;4.97;;;2.42;;
17494;SDS011;8864;51.970;4.614;2023-02-12T10:18:17;4.93;;;2.40;;
17494;SDS011;8864;51.970;4.614;2023-02-12T10:21:04;5.30;;;2.38;;
17494;SDS011;8864;51.970;4.614;2023-02-12T10:26:39;5.15;;;2.17;;
17494;SDS011;8864;51.970;4.614;2023-02-12T10:29:13;5.05;;;2.25;;
17494;SDS011;8864;51.970;4.614;2023-02-12T10:31:47;6.10;;;2.20;;
17494;SDS011;8864;51.970;4.614;2023-02-12T10:34:24;4.63;;;2.40;;
17494;SDS011;8864;51.970;4.614;2023-02-12T10:36:57;4.47;;;2.17;;
17494;SDS011;8864;51.970;4.614;2023-02-12T10:39:30;3.70;;;2.08;;
17494;SDS011;8864;51.970;4.614;2023-02-12T10:42:07;3.17;;;1.92;;
17494;SDS011;8864;51.970;4.614;2023-02-12T10:44:46;5.45;;;2.58;;
17494;SDS011;8864;51.970;4.614;2023-02-12T10:47:20;6.30;;;2.03;;
17494;SDS011;8864;51.970;4.614;2023-02-12T10:49:51;4.78;;;2.17;;
17494;SDS011;8864;51.970;4.614;2023-02-12T10:52:33;5.43;;;2.00;;
17494;SDS011;8864;51.970;4.614;2023-02-12T10:55:21;5.93;;;2.20;;
17494;SDS011;8864;51.970;4.614;2023-02-12T10:58:03;3.58;;;2.20;;
17494;SDS011;8864;51.970;4.614;2023-02-12T11:00:46;3.40;;;2.10;;
17494;SDS011;8864;51.970;4.614;2023-02-12T11:03:33;5.00;;;2.22;;
17494;SDS011;8864;51.970;4.614;2023-02-12T11:06:17;4.93;;;2.50;;
17494;SDS011;8864;51.970;4.614;2023-02-12T11:08:56;6.43;;;2.17;;
17494;SDS011;8864;51.970;4.614;2023-02-12T11:11:26;4.80;;;2.10;;
17494;SDS011;8864;51.970;4.614;2023-02-12T11:13:57;6.20;;;2.08;;
17494;SDS011;8864;51.970;4.614;2023-02-12T11:16:28;5.55;;;2.30;;
17494;SDS011;8864;51.970;4.614;2023-02-12T11:19:05;3.88;;;2.15;;
17494;SDS011;8864;51.970;4.614;2023-02-12T11:21:36;3.85;;;2.05;;
17494;SDS011;8864;51.970;4.614;2023-02-12T11:26:47;3.22;;;1.80;;
17494;SDS011;8864;51.970;4.614;2023-02-12T11:29:18;7.45;;;2.38;;
17494;SDS011;8864;51.970;4.614;2023-02-12T11:31:58;4.93;;;2.13;;
17494;SDS011;8864;51.970;4.614;2023-02-12T11:34:29;9.65;;;2.38;;
17494;SDS011;8864;51.970;4.614;2023-02-12T11:36:56;4.38;;;2.22;;
17494;SDS011;8864;51.970;4.614;2023-02-12T11:39:25;3.40;;;1.70;;
17494;SDS011;8864;51.970;4.614;2023-02-12T11:41:54;3.85;;;1.65;;
17494;SDS011;8864;51.970;4.614;2023-02-12T11:44:25;2.72;;;1.70;;
17494;SDS011;8864;51.970;4.614;2023-02-12T11:46:55;3.85;;;2.10;;
17494;SDS011;8864;51.970;4.614;2023-02-12T11:49:30;4.78;;;2.00;;
17494;SDS011;8864;51.970;4.614;2023-02-12T11:52:02;3.13;;;2.15;;
17494;SDS011;8864;51.970;4.614;2023-02-12T11:54:32;5.38;;;2.15;;
17494;SDS011;8864;51.970;4.614;2023-02-12T12:00:03;4.15;;;2.40;;
17494;SDS011;8864;51.970;4.614;2023-02-12T12:02:38;4.20;;;2.05;;
17494;SDS011;8864;51.970;4.614;2023-02-12T12:05:10;4.95;;;2.05;;
17494;SDS011;8864;51.970;4.614;2023-02-12T12:07:46;5.18;;;1.92;;
17494;SDS011;8864;51.970;4.614;2023-02-12T12:10:16;3.35;;;2.03;;
17494;SDS011;8864;51.970;4.614;2023-02-12T12:12:51;3.25;;;1.90;;
17494;SDS011;8864;51.970;4.614;2023-02-12T12:15:23;3.90;;;2.10;;
17494;SDS011;8864;51.970;4.614;2023-02-12T12:18:17;3.75;;;2.30;;
17494;SDS011;8864;51.970;4.614;2023-02-12T12:21:10;2.67;;;1.90;;
17494;SDS011;8864;51.970;4.614;2023-02-12T12:23:47;4.70;;;2.20;;
17494;SDS011;8864;51.970;4.614;2023-02-12T12:26:19;3.40;;;1.88;;
17494;SDS011;8864;51.970;4.614;2023-02-12T12:28:54;4.28;;;2.20;;
17494;SDS011;8864;51.970;4.614;2023-02-12T12:31:30;3.88;;;1.92;;
17494;SDS011;8864;51.970;4.614;2023-02-12T12:34:05;3.60;;;2.10;;
17494;SDS011;8864;51.970;4.614;2023-02-12T12:39:41;6.32;;;2.15;;
17494;SDS011;8864;51.970;4.614;2023-02-12T12:42:17;3.03;;;2.05;;
17494;SDS011;8864;51.970;4.614;2023-02-12T12:45:09;5.05;;;2.13;;
17494;SDS011;8864;51.970;4.614;2023-02-12T12:47:51;3.33;;;2.00;;
17494;SDS011;8864;51.970;4.614;2023-02-12T12:50:28;3.13;;;1.58;;
17494;SDS011;8864;51.970;4.614;2023-02-12T12:53:19;2.75;;;1.70;;
17494;SDS011;8864;51.970;4.614;2023-02-12T12:56:20;4.35;;;1.50;;
17494;SDS011;8864;51.970;4.614;2023-02-12T12:59:15;4.82;;;1.63;;
17494;SDS011;8864;51.970;4.614;2023-02-12T13:02:02;3.80;;;1.67;;
17494;SDS011;8864;51.970;4.614;2023-02-12T13:04:58;2.10;;;1.30;;
17494;SDS011;8864;51.970;4.614;2023-02-12T13:07:54;5.55;;;1.48;;
17494;SDS011;8864;51.970;4.614;2023-02-12T13:10:31;1.92;;;1.40;;
17494;SDS011;8864;51.970;4.614;2023-02-12T13:13:13;1.75;;;1.15;;
17494;SDS011;8864;51.970;4.614;2023-02-12T13:15:54;3.33;;;1.25;;
17494;SDS011;8864;51.970;4.614;2023-02-12T13:18:30;2.58;;;1.48;;
17494;SDS011;8864;51.970;4.614;2023-02-12T13:21:15;2.65;;;1.30;;
17494;SDS011;8864;51.970;4.614;2023-02-12T13:23:59;2.17;;;1.35;;
17494;SDS011;8864;51.970;4.614;2023-02-12T13:26:35;2.28;;;1.33;;
17494;SDS011;8864;51.970;4.614;2023-02-12T13:29:15;3.47;;;1.33;;
17494;SDS011;8864;51.970;4.614;2023-02-12T13:31:46;2.47;;;1.55;;
17494;SDS011;8864;51.970;4.614;2023-02-12T13:34:16;2.88;;;1.38;;
17494;SDS011;8864;51.970;4.614;2023-02-12T13:36:48;1.95;;;1.30;;
17494;SDS011;8864;51.970;4.614;2023-02-12T13:39:21;2.13;;;1.27;;
17494;SDS011;8864;51.970;4.614;2023-02-12T13:41:57;2.45;;;1.30;;
17494;SDS011;8864;51.970;4.614;2023-02-12T13:44:49;1.55;;;1.00;;
17494;SDS011;8864;51.970;4.614;2023-02-12T13:47:38;2.00;;;1.17;;
17494;SDS011;8864;51.970;4.614;2023-02-12T13:50:22;2.20;;;1.30;;
17494;SDS011;8864;51.970;4.614;2023-02-12T13:53:00;2.03;;;1.23;;
17494;SDS011;8864;51.970;4.614;2023-02-12T13:55:33;3.13;;;1.38;;
17494;SDS011;8864;51.970;4.614;2023-02-12T14:01:09;1.73;;;1.20;;
17494;SDS011;8864;51.970;4.614;2023-02-12T14:03:42;3.47;;;1.30;;
17494;SDS011;8864;51.970;4.614;2023-02-12T14:06:18;3.20;;;1.27;;
17494;SDS011;8864;51.970;4.614;2023-02-12T14:08:47;3.35;;;1.52;;
17494;SDS011;8864;51.970;4.614;2023-02-12T14:11:19;2.50;;;1.20;;
17494;SDS011;8864;51.970;4.614;2023-02-12T14:14:02;1.25;;;0.90;;
17494;SDS011;8864;51.970;4.614;2023-02-12T14:16:38;2.00;;;1.15;;
17494;SDS011;8864;51.970;4.614;2023-02-12T14:22:12;1.13;;;1.00;;
17494;SDS011;8864;51.970;4.614;2023-02-12T14:24:50;1.58;;;1.20;;
17494;SDS011;8864;51.970;4.614;2023-02-12T14:30:24;1.58;;;1.15;;
17494;SDS011;8864;51.970;4.614;2023-02-12T14:35:47;3.47;;;1.35;;
17494;SDS011;8864;51.970;4.614;2023-02-12T14:41:26;4.20;;;1.40;;
17494;SDS011;8864;51.970;4.614;2023-02-12T14:50:20;4.07;;;1.88;;
17494;SDS011;8864;51.970;4.614;2023-02-12T14:52:59;3.45;;;1.75;;
17494;SDS011;8864;51.970;4.614;2023-02-12T14:55:32;10.50;;;2.28;;
17494;SDS011;8864;51.970;4.614;2023-02-12T14:58:03;8.70;;;2.17;;
17494;SDS011;8864;51.970;4.614;2023-02-12T15:00:41;6.72;;;2.00;;
17494;SDS011;8864;51.970;4.614;2023-02-12T15:03:17;4.28;;;2.00;;
17494;SDS011;8864;51.970;4.614;2023-02-12T15:05:58;4.18;;;1.70;;
17494;SDS011;8864;51.970;4.614;2023-02-12T15:11:32;4.40;;;2.20;;
17494;SDS011;8864;51.970;4.614;2023-02-12T15:14:05;4.80;;;2.00;;
17494;SDS011;8864;51.970;4.614;2023-02-12T15:16:40;3.42;;;2.03;;
17494;SDS011;8864;51.970;4.614;2023-02-12T15:19:25;5.30;;;2.10;;
17494;SDS011;8864;51.970;4.614;2023-02-12T15:22:22;3.42;;;2.17;;
17494;SDS011;8864;51.970;4.614;2023-02-12T15:24:54;5.72;;;2.40;;
17494;SDS011;8864;51.970;4.614;2023-02-12T15:27:42;5.50;;;2.40;;
17494;SDS011;8864;51.970;4.614;2023-02-12T15:30:13;5.05;;;2.05;;
17494;SDS011;8864;51.970;4.614;2023-02-12T15:32:42;3.83;;;2.20;;
17494;SDS011;8864;51.970;4.614;2023-02-12T15:35:18;4.45;;;2.78;;
17494;SDS011;8864;51.970;4.614;2023-02-12T15:37:54;4.80;;;2.55;;
17494;SDS011;8864;51.970;4.614;2023-02-12T15:40:25;4.47;;;2.53;;
17494;SDS011;8864;51.970;4.614;2023-02-12T15:42:54;4.05;;;2.53;;
17494;SDS011;8864;51.970;4.614;2023-02-12T15:45:23;10.25;;;2.67;;
17494;SDS011;8864;51.970;4.614;2023-02-12T15:47:56;4.05;;;2.60;;
17494;SDS011;8864;51.970;4.614;2023-02-12T15:50:51;5.82;;;2.50;;
17494;SDS011;8864;51.970;4.614;2023-02-12T15:53:23;4.05;;;2.83;;
17494;SDS011;8864;51.970;4.614;2023-02-12T15:55:57;4.35;;;2.85;;
17494;SDS011;8864;51.970;4.614;2023-02-12T15:58:26;3.67;;;2.70;;
17494;SDS011;8864;51.970;4.614;2023-02-12T16:00:59;5.47;;;2.92;;
17494;SDS011;8864;51.970;4.614;2023-02-12T16:03:31;4.53;;;3.10;;
17494;SDS011;8864;51.970;4.614;2023-02-12T16:06:00;4.50;;;2.50;;
17494;SDS011;8864;51.970;4.614;2023-02-12T16:08:36;3.95;;;3.00;;
17494;SDS011;8864;51.970;4.614;2023-02-12T16:11:05;7.35;;;2.90;;
17494;SDS011;8864;51.970;4.614;2023-02-12T16:13:39;4.53;;;3.08;;
17494;SDS011;8864;51.970;4.614;2023-02-12T16:16:16;5.78;;;3.30;;
17494;SDS011;8864;51.970;4.614;2023-02-12T16:19:02;5.20;;;3.28;;
17494;SDS011;8864;51.970;4.614;2023-02-12T16:21:33;7.20;;;3.55;;
17494;SDS011;8864;51.970;4.614;2023-02-12T16:24:11;5.38;;;3.05;;
17494;SDS011;8864;51.970;4.614;2023-02-12T16:26:50;5.60;;;3.30;;